sensor_id;sensor_type;location;lat;lon;timestamp;P1;durP1;ratioP1;P2;durP2;ratioP2
54945;SDS011;40846;44.788;20.486;2023-05-10T00:00:28;19.35;;;7.20;;
54945;SDS011;40846;44.788;20.486;2023-05-10T00:02:54;13.60;;;6.35;;
54945;SDS011;40846;44.788;20.486;2023-05-10T00:05:19;17.23;;;6.97;;
54945;SDS011;40846;44.788;20.486;2023-05-10T00:07:45;12.73;;;6.72;;
54945;SDS011;40846;44.788;20.486;2023-05-10T00:10:11;16.60;;;7.70;;
54945;SDS011;40846;44.788;20.486;2023-05-10T00:12:37;17.95;;;8.40;;
54945;SDS011;40846;44.788;20.486;2023-05-10T00:15:05;18.50;;;7.75;;
54945;SDS011;40846;44.788;20.486;2023-05-10T00:17:31;20.67;;;7.53;;
54945;SDS011;40846;44.788;20.486;2023-05-10T00:19:57;13.93;;;7.00;;
54945;SDS011;40846;44.788;20.486;2023-05-10T00:22:23;12.05;;;6.60;;
54945;SDS011;40846;44.788;20.486;2023-05-10T00:24:49;12.95;;;6.45;;
54945;SDS011;40846;44.788;20.486;2023-05-10T00:27:15;15.23;;;6.30;;
54945;SDS011;40846;44.788;20.486;2023-05-10T00:29:41;9.35;;;5.45;;
54945;SDS011;40846;44.788;20.486;2023-05-10T00:32:07;10.02;;;4.65;;
54945;SDS011;40846;44.788;20.486;2023-05-10T00:34:33;10.65;;;5.40;;
54945;SDS011;40846;44.788;20.486;2023-05-10T00:36:59;9.45;;;5.47;;
54945;SDS011;40846;44.788;20.486;2023-05-10T00:39:26;8.27;;;4.60;;
54945;SDS011;40846;44.788;20.486;2023-05-10T00:41:53;7.13;;;4.38;;
54945;SDS011;40846;44.788;20.486;2023-05-10T00:44:20;10.55;;;4.70;;
54945;SDS011;40846;44.788;20.486;2023-05-10T00:46:46;7.63;;;4.75;;
54945;SDS011;40846;44.788;20.486;2023-05-10T00:49:12;9.35;;;4.70;;
54945;SDS011;40846;44.788;20.486;2023-05-10T00:51:38;15.00;;;5.05;;
54945;SDS011;40846;44.788;20.486;2023-05-10T00:54:05;10.45;;;5.00;;
54945;SDS011;40846;44.788;20.486;2023-05-10T00:56:31;9.20;;;4.72;;
54945;SDS011;40846;44.788;20.486;2023-05-10T00:58:57;7.10;;;4.68;;
54945;SDS011;40846;44.788;20.486;2023-05-10T01:01:24;10.55;;;5.53;;
54945;SDS011;40846;44.788;20.486;2023-05-10T01:03:50;6.75;;;4.57;;
54945;SDS011;40846;44.788;20.486;2023-05-10T01:06:17;9.48;;;4.30;;
54945;SDS011;40846;44.788;20.486;2023-05-10T01:08:43;9.23;;;3.67;;
54945;SDS011;40846;44.788;20.486;2023-05-10T01:11:09;10.93;;;4.57;;
54945;SDS011;40846;44.788;20.486;2023-05-10T01:13:39;11.32;;;4.72;;
54945;SDS011;40846;44.788;20.486;2023-05-10T01:16:07;11.30;;;4.15;;
54945;SDS011;40846;44.788;20.486;2023-05-10T01:18:36;6.13;;;4.35;;
54945;SDS011;40846;44.788;20.486;2023-05-10T01:29:42;10.38;;;3.90;;
54945;SDS011;40846;44.788;20.486;2023-05-10T01:34:47;9.07;;;4.72;;
54945;SDS011;40846;44.788;20.486;2023-05-10T01:37:20;5.30;;;3.60;;
54945;SDS011;40846;44.788;20.486;2023-05-10T01:39:52;6.22;;;4.20;;
54945;SDS011;40846;44.788;20.486;2023-05-10T01:42:21;8.30;;;4.18;;
54945;SDS011;40846;44.788;20.486;2023-05-10T01:49:41;6.70;;;4.07;;
54945;SDS011;40846;44.788;20.486;2023-05-10T01:52:12;10.98;;;4.20;;
54945;SDS011;40846;44.788;20.486;2023-05-10T01:54:42;7.38;;;3.70;;
54945;SDS011;40846;44.788;20.486;2023-05-10T01:57:10;10.32;;;3.92;;
54945;SDS011;40846;44.788;20.486;2023-05-10T01:59:39;10.13;;;4.07;;
54945;SDS011;40846;44.788;20.486;2023-05-10T02:02:07;7.20;;;4.10;;
54945;SDS011;40846;44.788;20.486;2023-05-10T02:04:36;10.38;;;3.75;;
54945;SDS011;40846;44.788;20.486;2023-05-10T02:07:03;6.32;;;3.88;;
54945;SDS011;40846;44.788;20.486;2023-05-10T02:09:32;7.30;;;4.32;;
54945;SDS011;40846;44.788;20.486;2023-05-10T02:11:59;6.00;;;3.90;;
54945;SDS011;40846;44.788;20.486;2023-05-10T02:14:27;6.72;;;3.78;;
54945;SDS011;40846;44.788;20.486;2023-05-10T02:16:54;8.98;;;3.45;;
54945;SDS011;40846;44.788;20.486;2023-05-10T02:19:21;8.32;;;4.15;;
54945;SDS011;40846;44.788;20.486;2023-05-10T02:21:48;6.65;;;3.92;;
54945;SDS011;40846;44.788;20.486;2023-05-10T02:24:16;8.95;;;3.90;;
54945;SDS011;40846;44.788;20.486;2023-05-10T02:26:42;6.95;;;4.18;;
54945;SDS011;40846;44.788;20.486;2023-05-10T02:29:09;6.90;;;4.13;;
54945;SDS011;40846;44.788;20.486;2023-05-10T02:31:37;5.60;;;4.03;;
54945;SDS011;40846;44.788;20.486;2023-05-10T02:34:04;7.50;;;3.80;;
54945;SDS011;40846;44.788;20.486;2023-05-10T02:36:32;9.40;;;3.65;;
54945;SDS011;40846;44.788;20.486;2023-05-10T02:39:01;7.13;;;4.03;;
54945;SDS011;40846;44.788;20.486;2023-05-10T02:41:27;7.82;;;4.47;;
54945;SDS011;40846;44.788;20.486;2023-05-10T02:43:55;7.78;;;4.38;;
54945;SDS011;40846;44.788;20.486;2023-05-10T02:46:23;6.07;;;3.95;;
54945;SDS011;40846;44.788;20.486;2023-05-10T02:48:49;9.05;;;4.50;;
54945;SDS011;40846;44.788;20.486;2023-05-10T02:51:18;8.13;;;4.30;;
54945;SDS011;40846;44.788;20.486;2023-05-10T02:53:45;6.70;;;4.32;;
54945;SDS011;40846;44.788;20.486;2023-05-10T02:56:16;8.18;;;4.35;;
54945;SDS011;40846;44.788;20.486;2023-05-10T02:58:45;6.70;;;4.13;;
54945;SDS011;40846;44.788;20.486;2023-05-10T03:01:11;8.93;;;4.72;;
54945;SDS011;40846;44.788;20.486;2023-05-10T03:03:37;11.55;;;4.38;;
54945;SDS011;40846;44.788;20.486;2023-05-10T03:06:03;6.03;;;4.10;;
54945;SDS011;40846;44.788;20.486;2023-05-10T03:08:30;8.75;;;4.72;;
54945;SDS011;40846;44.788;20.486;2023-05-10T03:16:24;8.48;;;4.55;;
54945;SDS011;40846;44.788;20.486;2023-05-10T03:18:54;9.77;;;4.85;;
54945;SDS011;40846;44.788;20.486;2023-05-10T03:21:25;8.40;;;4.75;;
54945;SDS011;40846;44.788;20.486;2023-05-10T03:23:58;7.38;;;5.00;;
54945;SDS011;40846;44.788;20.486;2023-05-10T03:26:26;8.73;;;4.72;;
54945;SDS011;40846;44.788;20.486;2023-05-10T03:28:53;10.88;;;4.68;;
54945;SDS011;40846;44.788;20.486;2023-05-10T03:31:19;7.85;;;4.65;;
54945;SDS011;40846;44.788;20.486;2023-05-10T03:33:46;12.07;;;5.43;;
54945;SDS011;40846;44.788;20.486;2023-05-10T03:36:12;8.68;;;5.97;;
54945;SDS011;40846;44.788;20.486;2023-05-10T03:38:38;10.07;;;5.10;;
54945;SDS011;40846;44.788;20.486;2023-05-10T03:41:04;11.38;;;5.65;;
54945;SDS011;40846;44.788;20.486;2023-05-10T03:43:30;8.80;;;4.88;;
54945;SDS011;40846;44.788;20.486;2023-05-10T03:45:56;12.15;;;5.82;;
54945;SDS011;40846;44.788;20.486;2023-05-10T03:48:21;10.73;;;5.05;;
54945;SDS011;40846;44.788;20.486;2023-05-10T03:50:47;10.63;;;6.15;;
54945;SDS011;40846;44.788;20.486;2023-05-10T03:53:14;11.07;;;5.03;;
54945;SDS011;40846;44.788;20.486;2023-05-10T03:55:40;8.23;;;5.25;;
54945;SDS011;40846;44.788;20.486;2023-05-10T03:58:06;8.27;;;5.15;;
54945;SDS011;40846;44.788;20.486;2023-05-10T04:00:32;8.20;;;5.20;;
54945;SDS011;40846;44.788;20.486;2023-05-10T04:02:58;8.07;;;5.43;;
54945;SDS011;40846;44.788;20.486;2023-05-10T04:05:23;8.52;;;5.15;;
54945;SDS011;40846;44.788;20.486;2023-05-10T04:07:49;8.65;;;5.50;;
54945;SDS011;40846;44.788;20.486;2023-05-10T04:10:16;9.90;;;6.07;;
54945;SDS011;40846;44.788;20.486;2023-05-10T04:12:42;10.88;;;5.00;;
54945;SDS011;40846;44.788;20.486;2023-05-10T04:15:08;12.25;;;6.07;;
54945;SDS011;40846;44.788;20.486;2023-05-10T04:17:34;13.68;;;6.35;;
54945;SDS011;40846;44.788;20.486;2023-05-10T04:20:00;10.13;;;5.97;;
54945;SDS011;40846;44.788;20.486;2023-05-10T04:22:25;10.60;;;6.13;;
54945;SDS011;40846;44.788;20.486;2023-05-10T04:24:52;11.10;;;6.70;;
54945;SDS011;40846;44.788;20.486;2023-05-10T04:27:18;15.05;;;6.60;;
54945;SDS011;40846;44.788;20.486;2023-05-10T04:29:44;10.77;;;6.57;;
54945;SDS011;40846;44.788;20.486;2023-05-10T04:32:09;17.63;;;6.65;;
54945;SDS011;40846;44.788;20.486;2023-05-10T04:34:36;13.20;;;7.80;;
54945;SDS011;40846;44.788;20.486;2023-05-10T04:37:02;14.88;;;6.63;;
54945;SDS011;40846;44.788;20.486;2023-05-10T04:39:27;14.75;;;7.72;;
54945;SDS011;40846;44.788;20.486;2023-05-10T04:41:53;11.43;;;7.25;;
54945;SDS011;40846;44.788;20.486;2023-05-10T04:44:19;14.10;;;7.03;;
54945;SDS011;40846;44.788;20.486;2023-05-10T04:46:44;17.48;;;7.32;;
54945;SDS011;40846;44.788;20.486;2023-05-10T04:49:10;11.57;;;6.75;;
54945;SDS011;40846;44.788;20.486;2023-05-10T04:51:36;13.77;;;7.28;;
54945;SDS011;40846;44.788;20.486;2023-05-10T04:54:02;15.15;;;6.72;;
54945;SDS011;40846;44.788;20.486;2023-05-10T04:56:28;13.13;;;6.65;;
54945;SDS011;40846;44.788;20.486;2023-05-10T04:58:54;14.48;;;7.13;;
54945;SDS011;40846;44.788;20.486;2023-05-10T05:01:19;14.30;;;7.20;;
54945;SDS011;40846;44.788;20.486;2023-05-10T05:03:45;13.70;;;7.30;;
54945;SDS011;40846;44.788;20.486;2023-05-10T05:06:11;11.25;;;6.20;;
54945;SDS011;40846;44.788;20.486;2023-05-10T05:08:36;11.70;;;7.15;;
54945;SDS011;40846;44.788;20.486;2023-05-10T05:11:02;10.18;;;6.78;;
54945;SDS011;40846;44.788;20.486;2023-05-10T05:13:28;11.57;;;6.95;;
54945;SDS011;40846;44.788;20.486;2023-05-10T05:15:54;16.60;;;7.15;;
54945;SDS011;40846;44.788;20.486;2023-05-10T05:18:20;11.18;;;6.68;;
54945;SDS011;40846;44.788;20.486;2023-05-10T05:20:46;11.50;;;6.55;;
54945;SDS011;40846;44.788;20.486;2023-05-10T05:23:11;14.45;;;7.07;;
54945;SDS011;40846;44.788;20.486;2023-05-10T05:25:37;10.38;;;6.78;;
54945;SDS011;40846;44.788;20.486;2023-05-10T05:28:03;10.98;;;6.43;;
54945;SDS011;40846;44.788;20.486;2023-05-10T05:30:29;10.43;;;6.18;;
54945;SDS011;40846;44.788;20.486;2023-05-10T05:32:55;13.65;;;6.55;;
54945;SDS011;40846;44.788;20.486;2023-05-10T05:35:21;13.20;;;6.80;;
54945;SDS011;40846;44.788;20.486;2023-05-10T05:37:47;13.57;;;6.15;;
54945;SDS011;40846;44.788;20.486;2023-05-10T05:40:13;11.88;;;5.78;;
54945;SDS011;40846;44.788;20.486;2023-05-10T05:42:39;9.45;;;5.22;;
54945;SDS011;40846;44.788;20.486;2023-05-10T05:45:05;16.65;;;5.53;;
54945;SDS011;40846;44.788;20.486;2023-05-10T05:47:31;10.93;;;5.38;;
54945;SDS011;40846;44.788;20.486;2023-05-10T05:49:57;9.40;;;5.70;;
54945;SDS011;40846;44.788;20.486;2023-05-10T05:52:23;9.27;;;5.13;;
54945;SDS011;40846;44.788;20.486;2023-05-10T05:54:49;10.02;;;4.68;;
54945;SDS011;40846;44.788;20.486;2023-05-10T05:57:15;8.20;;;4.68;;
54945;SDS011;40846;44.788;20.486;2023-05-10T05:59:41;14.50;;;5.97;;
54945;SDS011;40846;44.788;20.486;2023-05-10T06:02:09;14.95;;;4.88;;
54945;SDS011;40846;44.788;20.486;2023-05-10T06:04:35;7.70;;;4.70;;
54945;SDS011;40846;44.788;20.486;2023-05-10T06:07:01;10.73;;;4.70;;
54945;SDS011;40846;44.788;20.486;2023-05-10T06:09:27;11.20;;;4.75;;
54945;SDS011;40846;44.788;20.486;2023-05-10T06:11:53;7.22;;;4.85;;
54945;SDS011;40846;44.788;20.486;2023-05-10T06:14:20;9.00;;;4.25;;
54945;SDS011;40846;44.788;20.486;2023-05-10T06:16:46;9.65;;;4.53;;
54945;SDS011;40846;44.788;20.486;2023-05-10T06:19:12;8.40;;;4.00;;
54945;SDS011;40846;44.788;20.486;2023-05-10T06:21:42;10.10;;;5.32;;
54945;SDS011;40846;44.788;20.486;2023-05-10T06:24:08;11.60;;;3.53;;
54945;SDS011;40846;44.788;20.486;2023-05-10T06:26:35;11.45;;;4.68;;
54945;SDS011;40846;44.788;20.486;2023-05-10T06:29:01;7.32;;;3.90;;
54945;SDS011;40846;44.788;20.486;2023-05-10T06:31:27;10.85;;;4.47;;
54945;SDS011;40846;44.788;20.486;2023-05-10T06:33:54;7.43;;;4.40;;
54945;SDS011;40846;44.788;20.486;2023-05-10T06:36:20;7.32;;;4.00;;
54945;SDS011;40846;44.788;20.486;2023-05-10T06:38:47;11.95;;;4.07;;
54945;SDS011;40846;44.788;20.486;2023-05-10T06:41:13;8.52;;;4.07;;
54945;SDS011;40846;44.788;20.486;2023-05-10T06:43:39;10.70;;;3.88;;
54945;SDS011;40846;44.788;20.486;2023-05-10T06:46:06;7.47;;;3.70;;
54945;SDS011;40846;44.788;20.486;2023-05-10T06:48:32;6.95;;;4.13;;
54945;SDS011;40846;44.788;20.486;2023-05-10T06:50:58;15.40;;;3.78;;
54945;SDS011;40846;44.788;20.486;2023-05-10T06:53:25;12.25;;;4.65;;
54945;SDS011;40846;44.788;20.486;2023-05-10T06:55:51;6.15;;;3.67;;
54945;SDS011;40846;44.788;20.486;2023-05-10T06:58:17;9.63;;;4.95;;
54945;SDS011;40846;44.788;20.486;2023-05-10T07:00:43;8.18;;;4.13;;
54945;SDS011;40846;44.788;20.486;2023-05-10T07:03:10;4.97;;;3.42;;
54945;SDS011;40846;44.788;20.486;2023-05-10T07:05:36;7.40;;;3.72;;
54945;SDS011;40846;44.788;20.486;2023-05-10T07:08:02;14.20;;;4.20;;
54945;SDS011;40846;44.788;20.486;2023-05-10T07:10:28;9.48;;;4.28;;
54945;SDS011;40846;44.788;20.486;2023-05-10T07:12:55;8.18;;;4.43;;
54945;SDS011;40846;44.788;20.486;2023-05-10T07:15:21;7.50;;;4.07;;
54945;SDS011;40846;44.788;20.486;2023-05-10T07:17:47;7.35;;;4.18;;
54945;SDS011;40846;44.788;20.486;2023-05-10T07:20:13;8.90;;;4.07;;
54945;SDS011;40846;44.788;20.486;2023-05-10T07:22:39;8.02;;;4.00;;
54945;SDS011;40846;44.788;20.486;2023-05-10T07:25:05;8.57;;;4.75;;
54945;SDS011;40846;44.788;20.486;2023-05-10T07:27:32;8.50;;;4.32;;
54945;SDS011;40846;44.788;20.486;2023-05-10T07:29:58;11.52;;;4.30;;
54945;SDS011;40846;44.788;20.486;2023-05-10T07:32:24;10.20;;;4.90;;
54945;SDS011;40846;44.788;20.486;2023-05-10T07:34:50;7.00;;;4.35;;
54945;SDS011;40846;44.788;20.486;2023-05-10T07:37:16;8.98;;;4.50;;
54945;SDS011;40846;44.788;20.486;2023-05-10T07:39:42;12.20;;;5.05;;
54945;SDS011;40846;44.788;20.486;2023-05-10T07:42:08;9.43;;;4.40;;
54945;SDS011;40846;44.788;20.486;2023-05-10T07:44:34;12.48;;;4.85;;
54945;SDS011;40846;44.788;20.486;2023-05-10T07:47:00;11.18;;;4.32;;
54945;SDS011;40846;44.788;20.486;2023-05-10T07:49:26;9.18;;;5.22;;
54945;SDS011;40846;44.788;20.486;2023-05-10T07:51:52;17.58;;;5.35;;
54945;SDS011;40846;44.788;20.486;2023-05-10T07:54:18;8.07;;;4.57;;
54945;SDS011;40846;44.788;20.486;2023-05-10T07:56:44;21.45;;;5.32;;
54945;SDS011;40846;44.788;20.486;2023-05-10T07:59:15;6.15;;;4.15;;
54945;SDS011;40846;44.788;20.486;2023-05-10T08:01:42;10.68;;;4.80;;
54945;SDS011;40846;44.788;20.486;2023-05-10T08:04:08;10.77;;;5.10;;
54945;SDS011;40846;44.788;20.486;2023-05-10T08:06:34;6.82;;;4.90;;
54945;SDS011;40846;44.788;20.486;2023-05-10T08:09:00;7.35;;;3.85;;
54945;SDS011;40846;44.788;20.486;2023-05-10T08:11:26;6.85;;;4.00;;
54945;SDS011;40846;44.788;20.486;2023-05-10T08:13:55;9.32;;;4.50;;
54945;SDS011;40846;44.788;20.486;2023-05-10T08:16:21;7.78;;;3.72;;
54945;SDS011;40846;44.788;20.486;2023-05-10T08:18:47;6.35;;;4.10;;
54945;SDS011;40846;44.788;20.486;2023-05-10T08:21:15;7.07;;;3.80;;
54945;SDS011;40846;44.788;20.486;2023-05-10T08:23:41;9.88;;;3.83;;
54945;SDS011;40846;44.788;20.486;2023-05-10T08:26:08;9.88;;;3.83;;
54945;SDS011;40846;44.788;20.486;2023-05-10T08:28:34;20.73;;;3.88;;
54945;SDS011;40846;44.788;20.486;2023-05-10T08:31:00;12.65;;;3.60;;
54945;SDS011;40846;44.788;20.486;2023-05-10T08:33:26;4.80;;;3.20;;
54945;SDS011;40846;44.788;20.486;2023-05-10T08:35:52;5.60;;;3.38;;
54945;SDS011;40846;44.788;20.486;2023-05-10T08:38:18;10.82;;;3.30;;
54945;SDS011;40846;44.788;20.486;2023-05-10T08:40:45;12.13;;;3.47;;
54945;SDS011;40846;44.788;20.486;2023-05-10T08:43:12;11.02;;;3.55;;
54945;SDS011;40846;44.788;20.486;2023-05-10T08:45:42;6.47;;;3.03;;
54945;SDS011;40846;44.788;20.486;2023-05-10T08:48:10;9.85;;;3.60;;
54945;SDS011;40846;44.788;20.486;2023-05-10T08:50:37;9.32;;;3.13;;
54945;SDS011;40846;44.788;20.486;2023-05-10T08:53:04;5.50;;;3.17;;
54945;SDS011;40846;44.788;20.486;2023-05-10T08:55:31;11.15;;;3.58;;
54945;SDS011;40846;44.788;20.486;2023-05-10T08:57:58;7.20;;;3.92;;
54945;SDS011;40846;44.788;20.486;2023-05-10T09:00:24;7.50;;;3.60;;
54945;SDS011;40846;44.788;20.486;2023-05-10T09:02:51;10.13;;;3.20;;
54945;SDS011;40846;44.788;20.486;2023-05-10T09:05:17;5.38;;;2.70;;
54945;SDS011;40846;44.788;20.486;2023-05-10T09:07:43;10.77;;;3.28;;
54945;SDS011;40846;44.788;20.486;2023-05-10T09:10:10;6.32;;;3.63;;
54945;SDS011;40846;44.788;20.486;2023-05-10T09:12:36;5.47;;;3.10;;
54945;SDS011;40846;44.788;20.486;2023-05-10T09:15:03;10.95;;;3.08;;
54945;SDS011;40846;44.788;20.486;2023-05-10T09:17:29;7.75;;;3.55;;
54945;SDS011;40846;44.788;20.486;2023-05-10T09:19:59;9.13;;;3.55;;
54945;SDS011;40846;44.788;20.486;2023-05-10T09:22:25;12.57;;;3.00;;
54945;SDS011;40846;44.788;20.486;2023-05-10T09:25:07;7.45;;;2.78;;
54945;SDS011;40846;44.788;20.486;2023-05-10T09:27:34;17.23;;;3.58;;
54945;SDS011;40846;44.788;20.486;2023-05-10T09:30:00;8.82;;;3.25;;
54945;SDS011;40846;44.788;20.486;2023-05-10T09:32:42;10.38;;;3.00;;
54945;SDS011;40846;44.788;20.486;2023-05-10T09:35:19;5.65;;;2.70;;
54945;SDS011;40846;44.788;20.486;2023-05-10T09:37:46;5.93;;;2.63;;
54945;SDS011;40846;44.788;20.486;2023-05-10T09:40:19;11.32;;;3.75;;
54945;SDS011;40846;44.788;20.486;2023-05-10T09:42:52;7.97;;;2.63;;
54945;SDS011;40846;44.788;20.486;2023-05-10T09:45:19;9.43;;;2.70;;
54945;SDS011;40846;44.788;20.486;2023-05-10T09:47:45;4.13;;;2.67;;
54945;SDS011;40846;44.788;20.486;2023-05-10T09:50:12;5.00;;;2.30;;
54945;SDS011;40846;44.788;20.486;2023-05-10T09:52:48;5.97;;;2.47;;
54945;SDS011;40846;44.788;20.486;2023-05-10T09:55:14;4.97;;;2.45;;
54945;SDS011;40846;44.788;20.486;2023-05-10T09:57:41;7.88;;;2.30;;
54945;SDS011;40846;44.788;20.486;2023-05-10T10:00:07;4.38;;;2.40;;
54945;SDS011;40846;44.788;20.486;2023-05-10T10:02:35;5.95;;;2.67;;
54945;SDS011;40846;44.788;20.486;2023-05-10T10:05:01;6.70;;;2.65;;
54945;SDS011;40846;44.788;20.486;2023-05-10T10:07:28;5.25;;;2.40;;
54945;SDS011;40846;44.788;20.486;2023-05-10T10:09:54;8.57;;;2.58;;
54945;SDS011;40846;44.788;20.486;2023-05-10T10:12:20;7.75;;;2.42;;
54945;SDS011;40846;44.788;20.486;2023-05-10T10:14:47;5.40;;;2.17;;
54945;SDS011;40846;44.788;20.486;2023-05-10T10:17:15;3.50;;;2.22;;
54945;SDS011;40846;44.788;20.486;2023-05-10T10:19:41;4.18;;;2.17;;
54945;SDS011;40846;44.788;20.486;2023-05-10T10:22:07;10.32;;;2.20;;
54945;SDS011;40846;44.788;20.486;2023-05-10T10:24:35;4.88;;;2.00;;
54945;SDS011;40846;44.788;20.486;2023-05-10T10:27:13;7.25;;;2.78;;
54945;SDS011;40846;44.788;20.486;2023-05-10T10:29:47;3.40;;;2.15;;
54945;SDS011;40846;44.788;20.486;2023-05-10T10:32:45;5.60;;;2.17;;
54945;SDS011;40846;44.788;20.486;2023-05-10T10:35:14;3.80;;;2.10;;
54945;SDS011;40846;44.788;20.486;2023-05-10T10:37:42;5.78;;;2.47;;
54945;SDS011;40846;44.788;20.486;2023-05-10T10:40:30;3.22;;;1.88;;
54945;SDS011;40846;44.788;20.486;2023-05-10T10:42:55;6.50;;;2.30;;
54945;SDS011;40846;44.788;20.486;2023-05-10T10:45:22;3.78;;;2.00;;
54945;SDS011;40846;44.788;20.486;2023-05-10T10:47:49;9.50;;;2.45;;
54945;SDS011;40846;44.788;20.486;2023-05-10T10:50:19;3.92;;;2.05;;
54945;SDS011;40846;44.788;20.486;2023-05-10T10:52:45;3.88;;;2.00;;
54945;SDS011;40846;44.788;20.486;2023-05-10T10:55:15;3.33;;;1.80;;
54945;SDS011;40846;44.788;20.486;2023-05-10T10:57:56;4.10;;;2.13;;
54945;SDS011;40846;44.788;20.486;2023-05-10T11:00:38;6.70;;;2.30;;
54945;SDS011;40846;44.788;20.486;2023-05-10T11:03:10;3.60;;;1.60;;
54945;SDS011;40846;44.788;20.486;2023-05-10T11:05:46;3.58;;;2.42;;
54945;SDS011;40846;44.788;20.486;2023-05-10T11:08:28;3.50;;;2.20;;
54945;SDS011;40846;44.788;20.486;2023-05-10T11:13:28;4.07;;;1.85;;
54945;SDS011;40846;44.788;20.486;2023-05-10T11:15:55;6.95;;;2.15;;
54945;SDS011;40846;44.788;20.486;2023-05-10T11:18:28;10.43;;;2.05;;
54945;SDS011;40846;44.788;20.486;2023-05-10T11:20:56;3.63;;;1.90;;
54945;SDS011;40846;44.788;20.486;2023-05-10T11:23:29;3.80;;;2.25;;
54945;SDS011;40846;44.788;20.486;2023-05-10T11:25:55;11.30;;;2.40;;
54945;SDS011;40846;44.788;20.486;2023-05-10T11:28:22;4.60;;;2.03;;
54945;SDS011;40846;44.788;20.486;2023-05-10T11:30:48;6.28;;;2.08;;
54945;SDS011;40846;44.788;20.486;2023-05-10T11:33:15;3.67;;;2.08;;
54945;SDS011;40846;44.788;20.486;2023-05-10T11:35:41;6.10;;;1.90;;
54945;SDS011;40846;44.788;20.486;2023-05-10T11:38:08;5.80;;;2.13;;
54945;SDS011;40846;44.788;20.486;2023-05-10T11:40:34;3.50;;;1.70;;
54945;SDS011;40846;44.788;20.486;2023-05-10T11:43:01;3.72;;;2.20;;
54945;SDS011;40846;44.788;20.486;2023-05-10T11:45:27;13.13;;;2.72;;
54945;SDS011;40846;44.788;20.486;2023-05-10T11:47:55;4.47;;;2.13;;
54945;SDS011;40846;44.788;20.486;2023-05-10T11:50:21;6.88;;;1.90;;
54945;SDS011;40846;44.788;20.486;2023-05-10T11:52:54;4.20;;;2.17;;
54945;SDS011;40846;44.788;20.486;2023-05-10T11:55:20;4.13;;;2.10;;
54945;SDS011;40846;44.788;20.486;2023-05-10T11:57:46;4.07;;;1.98;;
54945;SDS011;40846;44.788;20.486;2023-05-10T12:00:13;7.00;;;2.38;;
54945;SDS011;40846;44.788;20.486;2023-05-10T12:02:39;10.68;;;2.42;;
54945;SDS011;40846;44.788;20.486;2023-05-10T12:05:05;5.13;;;2.40;;
54945;SDS011;40846;44.788;20.486;2023-05-10T12:07:32;7.70;;;1.90;;
54945;SDS011;40846;44.788;20.486;2023-05-10T12:10:08;11.68;;;2.22;;
54945;SDS011;40846;44.788;20.486;2023-05-10T12:12:41;4.20;;;1.85;;
54945;SDS011;40846;44.788;20.486;2023-05-10T12:15:12;8.00;;;1.90;;
54945;SDS011;40846;44.788;20.486;2023-05-10T12:17:38;3.25;;;1.50;;
54945;SDS011;40846;44.788;20.486;2023-05-10T12:20:21;6.78;;;1.70;;
54945;SDS011;40846;44.788;20.486;2023-05-10T12:22:51;12.88;;;2.05;;
54945;SDS011;40846;44.788;20.486;2023-05-10T12:25:18;4.80;;;2.08;;
54945;SDS011;40846;44.788;20.486;2023-05-10T12:27:54;7.00;;;1.98;;
54945;SDS011;40846;44.788;20.486;2023-05-10T12:30:24;5.28;;;2.05;;
54945;SDS011;40846;44.788;20.486;2023-05-10T12:32:51;4.43;;;1.80;;
54945;SDS011;40846;44.788;20.486;2023-05-10T12:35:17;3.58;;;1.90;;
54945;SDS011;40846;44.788;20.486;2023-05-10T12:37:47;6.22;;;2.08;;
54945;SDS011;40846;44.788;20.486;2023-05-10T12:40:13;3.22;;;1.70;;
54945;SDS011;40846;44.788;20.486;2023-05-10T12:42:40;9.07;;;3.60;;
54945;SDS011;40846;44.788;20.486;2023-05-10T12:45:06;11.13;;;1.85;;
54945;SDS011;40846;44.788;20.486;2023-05-10T12:47:32;4.88;;;2.10;;
54945;SDS011;40846;44.788;20.486;2023-05-10T12:49:59;5.03;;;2.00;;
54945;SDS011;40846;44.788;20.486;2023-05-10T12:52:26;4.03;;;2.10;;
54945;SDS011;40846;44.788;20.486;2023-05-10T12:54:52;10.27;;;2.53;;
54945;SDS011;40846;44.788;20.486;2023-05-10T12:57:19;12.38;;;1.90;;
54945;SDS011;40846;44.788;20.486;2023-05-10T12:59:46;5.72;;;1.95;;
54945;SDS011;40846;44.788;20.486;2023-05-10T13:02:12;8.05;;;1.75;;
54945;SDS011;40846;44.788;20.486;2023-05-10T13:04:39;6.50;;;1.98;;
54945;SDS011;40846;44.788;20.486;2023-05-10T13:07:09;7.43;;;1.88;;
54945;SDS011;40846;44.788;20.486;2023-05-10T13:09:34;3.42;;;1.85;;
54945;SDS011;40846;44.788;20.486;2023-05-10T13:12:01;4.50;;;1.92;;
54945;SDS011;40846;44.788;20.486;2023-05-10T13:14:27;6.03;;;2.25;;
54945;SDS011;40846;44.788;20.486;2023-05-10T13:16:52;6.35;;;1.90;;
54945;SDS011;40846;44.788;20.486;2023-05-10T13:19:19;4.13;;;2.00;;
54945;SDS011;40846;44.788;20.486;2023-05-10T13:21:45;3.70;;;1.85;;
54945;SDS011;40846;44.788;20.486;2023-05-10T13:24:11;4.72;;;1.73;;
54945;SDS011;40846;44.788;20.486;2023-05-10T13:26:42;7.68;;;1.80;;
54945;SDS011;40846;44.788;20.486;2023-05-10T13:29:08;5.43;;;1.88;;
54945;SDS011;40846;44.788;20.486;2023-05-10T13:31:34;8.55;;;1.95;;
54945;SDS011;40846;44.788;20.486;2023-05-10T13:34:00;2.72;;;1.50;;
54945;SDS011;40846;44.788;20.486;2023-05-10T13:36:27;7.20;;;2.13;;
54945;SDS011;40846;44.788;20.486;2023-05-10T13:38:53;5.80;;;1.98;;
54945;SDS011;40846;44.788;20.486;2023-05-10T13:41:19;7.80;;;2.45;;
54945;SDS011;40846;44.788;20.486;2023-05-10T13:43:45;6.95;;;2.08;;
54945;SDS011;40846;44.788;20.486;2023-05-10T13:46:13;5.00;;;1.95;;
54945;SDS011;40846;44.788;20.486;2023-05-10T13:48:39;3.33;;;1.80;;
54945;SDS011;40846;44.788;20.486;2023-05-10T13:51:05;4.40;;;1.52;;
54945;SDS011;40846;44.788;20.486;2023-05-10T13:53:31;5.25;;;2.40;;
54945;SDS011;40846;44.788;20.486;2023-05-10T13:55:58;5.10;;;1.60;;
54945;SDS011;40846;44.788;20.486;2023-05-10T13:58:24;11.88;;;1.73;;
54945;SDS011;40846;44.788;20.486;2023-05-10T14:00:50;8.82;;;1.98;;
54945;SDS011;40846;44.788;20.486;2023-05-10T14:03:16;2.28;;;1.60;;
54945;SDS011;40846;44.788;20.486;2023-05-10T14:05:42;7.40;;;1.70;;
54945;SDS011;40846;44.788;20.486;2023-05-10T14:08:10;3.92;;;2.00;;
54945;SDS011;40846;44.788;20.486;2023-05-10T14:10:38;4.85;;;2.13;;
54945;SDS011;40846;44.788;20.486;2023-05-10T14:13:06;6.15;;;2.00;;
54945;SDS011;40846;44.788;20.486;2023-05-10T14:15:33;6.75;;;1.95;;
54945;SDS011;40846;44.788;20.486;2023-05-10T14:17:59;6.97;;;2.55;;
54945;SDS011;40846;44.788;20.486;2023-05-10T14:20:25;9.27;;;1.77;;
54945;SDS011;40846;44.788;20.486;2023-05-10T14:22:51;5.80;;;2.40;;
54945;SDS011;40846;44.788;20.486;2023-05-10T14:25:17;6.97;;;2.03;;
54945;SDS011;40846;44.788;20.486;2023-05-10T14:27:43;5.53;;;1.80;;
54945;SDS011;40846;44.788;20.486;2023-05-10T14:30:09;8.48;;;2.00;;
54945;SDS011;40846;44.788;20.486;2023-05-10T14:32:36;3.45;;;1.80;;
54945;SDS011;40846;44.788;20.486;2023-05-10T14:35:02;4.13;;;1.92;;
54945;SDS011;40846;44.788;20.486;2023-05-10T14:37:28;11.85;;;2.22;;
54945;SDS011;40846;44.788;20.486;2023-05-10T14:39:54;4.60;;;2.28;;
54945;SDS011;40846;44.788;20.486;2023-05-10T14:42:20;4.22;;;2.28;;
54945;SDS011;40846;44.788;20.486;2023-05-10T14:44:46;2.83;;;1.70;;
54945;SDS011;40846;44.788;20.486;2023-05-10T14:47:12;4.00;;;1.77;;
54945;SDS011;40846;44.788;20.486;2023-05-10T14:49:39;6.05;;;1.77;;
54945;SDS011;40846;44.788;20.486;2023-05-10T14:52:05;7.43;;;1.55;;
54945;SDS011;40846;44.788;20.486;2023-05-10T14:54:32;4.55;;;1.75;;